createdAt,value
2018-05-08T00:00:05.526Z,12.40
2018-05-08T00:01:05.038Z,12.40
2018-05-08T00:02:04.942Z,12.30
2018-05-08T00:03:05.482Z,12.30
2018-05-08T00:04:05.466Z,12.30
2018-05-08T00:05:04.897Z,12.30
2018-05-08T00:06:05.108Z,12.30
2018-05-08T00:07:06.598Z,12.30
2018-05-08T00:08:04.872Z,12.20
2018-05-08T00:09:05.043Z,12.20
2018-05-08T00:10:05.647Z,12.20
2018-05-08T00:11:04.705Z,12.20
2018-05-08T00:12:05.288Z,12.20
2018-05-08T00:13:05.438Z,12.20
2018-05-08T00:14:04.896Z,12.10
2018-05-08T00:15:04.719Z,12.10
2018-05-08T00:16:04.943Z,12.10
2018-05-08T00:17:04.782Z,12.10
2018-05-08T00:18:05.598Z,12.10
2018-05-08T00:19:04.817Z,12.00
2018-05-08T00:20:05.419Z,12.00
2018-05-08T00:21:05.110Z,12.00
2018-05-08T00:22:06.069Z,11.90
2018-05-08T00:23:05.402Z,11.90
2018-05-08T00:24:04.710Z,11.90
2018-05-08T00:25:05.238Z,11.90
2018-05-08T00:26:05.358Z,11.80
2018-05-08T00:27:05.361Z,11.80
2018-05-08T00:28:05.104Z,11.80
2018-05-08T00:29:04.931Z,11.70
2018-05-08T00:30:05.134Z,11.70
2018-05-08T00:31:05.198Z,11.70
2018-05-08T00:32:05.640Z,11.70
2018-05-08T00:33:05.044Z,11.60
2018-05-08T00:34:05.048Z,11.60
2018-05-08T00:35:05.553Z,11.60
2018-05-08T00:36:05.489Z,11.50
2018-05-08T00:37:05.213Z,11.50
2018-05-08T00:38:04.951Z,11.40
2018-05-08T00:39:05.492Z,11.40
2018-05-08T00:40:04.609Z,11.40
2018-05-08T00:41:05.294Z,11.40
2018-05-08T00:42:05.073Z,11.30
2018-05-08T00:43:05.068Z,11.30
2018-05-08T00:44:05.552Z,11.30
2018-05-08T00:45:05.080Z,11.30
2018-05-08T00:46:05.079Z,11.30
2018-05-08T00:47:05.072Z,11.30
2018-05-08T00:48:05.668Z,11.30
2018-05-08T00:49:04.989Z,11.30
2018-05-08T00:50:05.312Z,11.30
2018-05-08T00:51:04.856Z,11.30
2018-05-08T00:52:04.789Z,11.30
2018-05-08T00:53:05.547Z,11.30
2018-05-08T00:54:05.494Z,11.20
2018-05-08T00:55:05.045Z,11.30
2018-05-08T00:56:05.341Z,11.20
2018-05-08T00:57:04.820Z,11.20
2018-05-08T00:58:04.836Z,11.20
2018-05-08T00:59:05.073Z,11.20
2018-05-08T01:00:04.778Z,11.20
2018-05-08T01:01:05.359Z,11.20
2018-05-08T01:02:04.946Z,11.20
2018-05-08T01:03:04.722Z,11.10
2018-05-08T01:04:05.175Z,11.10
2018-05-08T01:05:05.590Z,11.10
2018-05-08T01:06:05.476Z,11.10
2018-05-08T01:07:05.206Z,11.10
2018-05-08T01:08:05.351Z,11.10
2018-05-08T01:09:05.274Z,11.10
2018-05-08T01:10:04.837Z,11.10
2018-05-08T01:11:04.839Z,11.10
2018-05-08T01:12:05.548Z,11.10
2018-05-08T01:13:05.013Z,11.10
2018-05-08T01:14:05.017Z,11.10
2018-05-08T01:15:05.126Z,11.10
2018-05-08T01:16:05.451Z,11.10
2018-05-08T01:17:05.545Z,11.10
2018-05-08T01:18:06.862Z,11.10
2018-05-08T01:19:05.160Z,11.10
2018-05-08T01:20:05.790Z,11.10
2018-05-08T01:21:05.468Z,11.20
2018-05-08T01:22:05.116Z,11.20
2018-05-08T01:23:05.425Z,11.20
2018-05-08T01:24:04.951Z,11.20
2018-05-08T01:25:05.206Z,11.20
2018-05-08T01:26:04.963Z,11.20
2018-05-08T01:27:05.288Z,11.20
2018-05-08T01:28:04.612Z,11.20
2018-05-08T01:29:05.308Z,11.20
2018-05-08T01:30:05.186Z,11.20
2018-05-08T01:31:04.934Z,11.20
2018-05-08T01:32:05.200Z,11.20
2018-05-08T01:33:04.995Z,11.20
2018-05-08T01:34:05.388Z,11.20
2018-05-08T01:35:05.510Z,11.20
2018-05-08T01:36:09.845Z,11.10
2018-05-08T01:37:05.671Z,11.20
2018-05-08T01:38:05.302Z,11.10
2018-05-08T01:39:05.165Z,11.20
2018-05-08T01:40:05.324Z,11.20
2018-05-08T01:41:05.670Z,11.20
2018-05-08T01:42:05.487Z,11.20
2018-05-08T01:43:05.055Z,11.20
2018-05-08T01:44:10.532Z,11.20
2018-05-08T01:45:04.882Z,11.20
2018-05-08T01:46:05.465Z,11.10
2018-05-08T01:47:04.889Z,11.10
2018-05-08T01:48:04.962Z,11.10
2018-05-08T01:49:04.737Z,11.10
2018-05-08T01:50:04.824Z,11.10
2018-05-08T01:51:05.638Z,11.10
2018-05-08T01:52:05.600Z,11.10
2018-05-08T01:53:05.443Z,11.10
2018-05-08T01:54:05.166Z,11.10
2018-05-08T01:55:04.970Z,11.00
2018-05-08T01:56:05.270Z,11.00
2018-05-08T01:57:04.993Z,11.00
2018-05-08T01:58:05.476Z,11.00
2018-05-08T01:59:05.019Z,10.90
2018-05-08T02:00:05.250Z,10.90
2018-05-08T02:01:04.869Z,10.90
2018-05-08T02:02:04.834Z,10.90
2018-05-08T02:03:05.209Z,10.90
2018-05-08T02:04:10.344Z,10.80
2018-05-08T02:05:05.250Z,10.80
2018-05-08T02:06:05.525Z,10.80
2018-05-08T02:07:05.378Z,10.80
2018-05-08T02:08:04.658Z,10.80
2018-05-08T02:09:06.612Z,10.70
2018-05-08T02:10:05.353Z,10.70
2018-05-08T02:11:05.398Z,10.70
2018-05-08T02:12:04.970Z,10.70
2018-05-08T02:13:06.199Z,10.60
2018-05-08T02:14:05.281Z,10.60
2018-05-08T02:15:05.420Z,10.60
2018-05-08T02:16:04.769Z,10.60
2018-05-08T02:17:05.534Z,10.60
2018-05-08T02:18:04.766Z,10.60
2018-05-08T02:19:05.689Z,10.60
2018-05-08T02:20:05.273Z,10.50
2018-05-08T02:21:04.977Z,10.50
2018-05-08T02:22:05.351Z,10.50
2018-05-08T02:23:04.695Z,10.50
2018-05-08T02:24:05.019Z,10.40
2018-05-08T02:25:05.532Z,10.40
2018-05-08T02:26:05.595Z,10.40
2018-05-08T02:27:04.895Z,10.40
2018-05-08T02:28:05.452Z,10.40
2018-05-08T02:29:05.302Z,10.30
2018-05-08T02:30:05.534Z,10.30
2018-05-08T02:31:05.376Z,10.30
2018-05-08T02:32:04.707Z,10.30
2018-05-08T02:33:04.876Z,10.30
2018-05-08T02:34:04.703Z,10.30
2018-05-08T02:35:05.184Z,10.30
2018-05-08T02:36:05.514Z,10.30
2018-05-08T02:37:05.393Z,10.30
2018-05-08T02:38:05.528Z,10.30
2018-05-08T02:39:05.193Z,10.30
2018-05-08T02:40:04.854Z,10.30
2018-05-08T02:41:04.797Z,10.20
2018-05-08T02:42:05.521Z,10.20
2018-05-08T02:43:04.723Z,10.20
2018-05-08T02:44:04.900Z,10.20
2018-05-08T02:45:05.117Z,10.20
2018-05-08T02:46:05.209Z,10.20
2018-05-08T02:47:04.778Z,10.20
2018-05-08T02:48:05.208Z,10.20
2018-05-08T02:49:05.147Z,10.20
2018-05-08T02:50:05.539Z,10.10
2018-05-08T02:51:04.641Z,10.10
2018-05-08T02:52:05.144Z,10.10
2018-05-08T02:53:05.442Z,10.10
2018-05-08T02:54:04.836Z,10.10
2018-05-08T02:55:04.941Z,10.10
2018-05-08T02:56:04.869Z,10.10
2018-05-08T02:57:04.681Z,10.10
2018-05-08T02:58:05.253Z,10.10
2018-05-08T02:59:05.024Z,10.10
2018-05-08T03:00:05.455Z,10.10
2018-05-08T03:01:05.475Z,10.10
2018-05-08T03:02:04.822Z,10.10
2018-05-08T03:03:04.855Z,10.00
2018-05-08T03:04:04.797Z,10.00
2018-05-08T03:05:05.675Z,10.00
2018-05-08T03:06:04.890Z,10.00
2018-05-08T03:07:05.547Z,10.00
2018-05-08T03:08:05.370Z,10.00
2018-05-08T03:09:05.574Z,10.00
2018-05-08T03:10:05.181Z,10.00
2018-05-08T03:11:04.740Z,10.00
2018-05-08T03:12:05.017Z,9.90
2018-05-08T03:13:06.332Z,10.00
2018-05-08T03:14:05.467Z,10.00
2018-05-08T03:15:05.568Z,9.90
2018-05-08T03:16:05.337Z,9.90
2018-05-08T03:17:05.078Z,9.90
2018-05-08T03:18:05.257Z,9.90
2018-05-08T03:19:05.589Z,9.90
2018-05-08T03:20:04.799Z,9.90
2018-05-08T03:21:05.565Z,9.90
2018-05-08T03:22:04.865Z,9.80
2018-05-08T03:23:05.451Z,9.80
2018-05-08T03:24:05.253Z,9.80
2018-05-08T03:25:05.520Z,9.80
2018-05-08T03:26:05.570Z,9.80
2018-05-08T03:27:05.344Z,9.80
2018-05-08T03:28:04.719Z,9.70
2018-05-08T03:29:09.735Z,9.70
2018-05-08T03:30:04.983Z,9.70
2018-05-08T03:31:05.692Z,9.70
2018-05-08T03:32:04.752Z,9.70
2018-05-08T03:33:04.754Z,9.60
2018-05-08T03:34:04.969Z,9.60
2018-05-08T03:35:05.001Z,9.60
2018-05-08T03:36:04.942Z,9.60
2018-05-08T03:37:05.160Z,9.60
2018-05-08T03:38:05.366Z,9.60
2018-05-08T03:39:05.427Z,9.60
2018-05-08T03:40:05.615Z,9.60
2018-05-08T03:41:05.359Z,9.60
2018-05-08T03:42:04.694Z,9.60
2018-05-08T03:43:04.896Z,9.60
2018-05-08T03:44:05.628Z,9.60
2018-05-08T03:45:05.126Z,9.60
2018-05-08T03:46:05.292Z,9.60
2018-05-08T03:47:05.705Z,9.60
2018-05-08T03:48:05.811Z,9.50
2018-05-08T03:49:05.613Z,9.50
2018-05-08T03:50:05.309Z,9.50
2018-05-08T03:51:05.080Z,9.50
2018-05-08T03:52:05.455Z,9.50
2018-05-08T03:53:05.149Z,9.50
2018-05-08T03:54:04.888Z,9.50
2018-05-08T03:55:04.929Z,9.50
2018-05-08T03:56:05.352Z,9.50
2018-05-08T03:57:05.295Z,9.50
2018-05-08T03:58:05.201Z,9.50
2018-05-08T03:59:05.216Z,9.50
2018-05-08T04:00:05.240Z,9.50
2018-05-08T04:01:05.157Z,9.50
2018-05-08T04:02:04.708Z,9.50
2018-05-08T04:03:05.379Z,9.50
2018-05-08T04:04:04.974Z,9.50
2018-05-08T04:05:04.824Z,9.50
2018-05-08T04:06:04.759Z,9.50
2018-05-08T04:07:09.767Z,9.50
2018-05-08T04:08:05.240Z,9.50
2018-05-08T04:09:05.260Z,9.50
2018-05-08T04:10:04.960Z,9.50
2018-05-08T04:11:05.204Z,9.50
2018-05-08T04:12:05.757Z,9.50
2018-05-08T04:13:05.579Z,9.50
2018-05-08T04:14:05.492Z,9.50
2018-05-08T04:15:05.559Z,9.50
2018-05-08T04:16:05.121Z,9.50
2018-05-08T04:17:05.260Z,9.50
2018-05-08T04:18:05.191Z,9.60
2018-05-08T04:19:05.413Z,9.60
2018-05-08T04:20:05.633Z,9.70
2018-05-08T04:21:05.570Z,9.80
2018-05-08T04:22:04.847Z,9.90
2018-05-08T04:23:04.827Z,10.10
2018-05-08T04:24:05.714Z,10.20
2018-05-08T04:25:05.620Z,10.30
2018-05-08T04:26:05.623Z,10.50
2018-05-08T04:27:05.333Z,10.70
2018-05-08T04:28:04.840Z,10.80
2018-05-08T04:29:05.487Z,11.00
2018-05-08T04:30:05.339Z,11.20
2018-05-08T04:31:06.437Z,11.40
2018-05-08T04:32:05.364Z,11.60
2018-05-08T04:33:04.941Z,11.70
2018-05-08T04:34:05.660Z,11.90
2018-05-08T04:35:10.059Z,12.10
2018-05-08T04:36:04.862Z,12.20
2018-05-08T04:37:05.287Z,12.40
2018-05-08T04:38:05.095Z,12.60
2018-05-08T04:39:04.915Z,12.70
2018-05-08T04:40:04.999Z,12.90
2018-05-08T04:41:05.339Z,13.10
2018-05-08T04:42:05.711Z,13.30
2018-05-08T04:43:04.757Z,13.40
2018-05-08T04:44:05.729Z,13.60
2018-05-08T04:45:05.663Z,13.80
2018-05-08T04:46:04.960Z,13.90
2018-05-08T04:47:04.668Z,14.00
2018-05-08T04:48:05.402Z,14.20
2018-05-08T04:49:05.608Z,14.30
2018-05-08T04:50:05.131Z,14.50
2018-05-08T04:51:05.442Z,14.60
2018-05-08T04:52:05.620Z,14.70
2018-05-08T04:53:04.882Z,14.90
2018-05-08T04:54:06.438Z,15.00
2018-05-08T04:55:05.255Z,15.10
2018-05-08T04:56:05.297Z,15.20
2018-05-08T04:57:05.459Z,15.40
2018-05-08T04:58:05.692Z,15.50
2018-05-08T04:59:05.549Z,15.60
2018-05-08T05:00:05.467Z,15.70
2018-05-08T05:01:05.225Z,15.80
2018-05-08T05:02:05.004Z,16.00
2018-05-08T05:03:05.159Z,16.10
2018-05-08T05:04:04.953Z,16.20
2018-05-08T05:05:04.770Z,16.40
2018-05-08T05:06:05.210Z,16.50
2018-05-08T05:07:05.329Z,16.60
2018-05-08T05:08:04.959Z,16.70
2018-05-08T05:09:05.186Z,16.80
2018-05-08T05:10:06.274Z,17.00
2018-05-08T05:11:05.475Z,17.10
2018-05-08T05:12:05.094Z,17.20
2018-05-08T05:13:05.119Z,17.30
2018-05-08T05:14:05.184Z,17.50
2018-05-08T05:15:05.029Z,17.60
2018-05-08T05:16:04.966Z,17.70
2018-05-08T05:17:05.506Z,17.80
2018-05-08T05:18:05.497Z,17.90
2018-05-08T05:19:05.104Z,18.00
2018-05-08T05:20:05.477Z,18.10
2018-05-08T05:21:05.702Z,18.20
2018-05-08T05:22:05.028Z,18.30
2018-05-08T05:23:04.678Z,18.40
2018-05-08T05:24:04.976Z,18.50
2018-05-08T05:25:05.155Z,18.60
2018-05-08T05:26:04.897Z,18.70
2018-05-08T05:27:05.502Z,18.80
2018-05-08T05:28:05.044Z,18.90
2018-05-08T05:29:04.923Z,19.00
2018-05-08T05:30:05.658Z,19.10
2018-05-08T05:31:05.507Z,19.10
2018-05-08T05:32:04.710Z,19.20
2018-05-08T05:33:05.407Z,19.30
2018-05-08T05:34:05.183Z,19.40
2018-05-08T05:35:05.264Z,19.50
2018-05-08T05:36:04.760Z,19.60
2018-05-08T05:37:05.236Z,19.60
2018-05-08T05:38:05.490Z,19.70
2018-05-08T05:39:10.615Z,19.80
2018-05-08T05:40:05.344Z,19.90
2018-05-08T05:41:05.459Z,19.90
2018-05-08T05:42:04.801Z,20.00
2018-05-08T05:43:04.859Z,20.10
2018-05-08T05:44:05.232Z,20.10
2018-05-08T05:45:05.629Z,20.20
2018-05-08T05:46:04.900Z,20.30
2018-05-08T05:47:05.050Z,20.30
2018-05-08T05:48:05.548Z,20.40
2018-05-08T05:49:06.635Z,20.40
2018-05-08T05:50:04.823Z,20.50
2018-05-08T05:51:04.770Z,20.50
2018-05-08T05:52:05.813Z,20.50
2018-05-08T05:53:05.182Z,20.60
2018-05-08T05:54:04.937Z,20.70
2018-05-08T05:55:05.632Z,20.70
2018-05-08T05:56:05.157Z,20.80
2018-05-08T05:57:05.037Z,20.80
2018-05-08T05:58:05.526Z,20.90
2018-05-08T05:59:04.821Z,21.00
2018-05-08T06:00:05.091Z,21.00
2018-05-08T06:01:04.794Z,21.00
2018-05-08T06:02:05.403Z,21.10
2018-05-08T06:03:05.063Z,21.10
2018-05-08T06:04:05.201Z,21.10
2018-05-08T06:05:04.926Z,21.20
2018-05-08T06:06:05.392Z,21.20
2018-05-08T06:07:05.095Z,21.20
2018-05-08T06:08:04.973Z,21.30
2018-05-08T06:09:05.283Z,21.30
2018-05-08T06:10:06.381Z,21.40
2018-05-08T06:11:05.540Z,21.40
2018-05-08T06:12:05.097Z,21.50
2018-05-08T06:13:05.233Z,21.50
2018-05-08T06:14:05.412Z,21.60
2018-05-08T06:15:04.633Z,21.60
2018-05-08T06:16:05.479Z,21.70
2018-05-08T06:17:04.648Z,21.70
2018-05-08T06:18:04.846Z,21.80
2018-05-08T06:19:05.075Z,21.80
2018-05-08T06:20:05.193Z,21.80
2018-05-08T06:21:05.186Z,21.90
2018-05-08T06:22:05.668Z,21.90
2018-05-08T06:23:04.992Z,21.90
2018-05-08T06:24:10.258Z,21.90
2018-05-08T06:25:05.159Z,22.00
2018-05-08T06:26:05.332Z,22.00
2018-05-08T06:27:05.603Z,22.10
2018-05-08T06:28:04.741Z,22.10
2018-05-08T06:29:06.692Z,22.10
2018-05-08T06:30:04.868Z,22.10
2018-05-08T06:31:05.319Z,22.10
2018-05-08T06:32:05.227Z,22.20
2018-05-08T06:33:05.035Z,22.20
2018-05-08T06:34:05.538Z,22.20
2018-05-08T06:35:04.852Z,22.20
2018-05-08T06:36:05.217Z,22.30
2018-05-08T06:37:05.258Z,22.30
2018-05-08T06:38:04.888Z,22.30
2018-05-08T06:39:04.878Z,22.30
2018-05-08T06:40:04.957Z,22.30
2018-05-08T06:41:05.637Z,22.40
2018-05-08T06:42:05.103Z,22.40
2018-05-08T06:43:04.829Z,22.40
2018-05-08T06:44:04.973Z,22.40
2018-05-08T06:45:04.788Z,22.40
2018-05-08T06:46:05.517Z,22.30
2018-05-08T06:47:05.362Z,22.30
2018-05-08T06:48:05.684Z,22.40
2018-05-08T06:49:04.935Z,22.40
2018-05-08T06:50:05.315Z,22.40
2018-05-08T06:51:04.936Z,22.30
2018-05-08T06:52:05.779Z,22.30
2018-05-08T06:53:05.076Z,22.30
2018-05-08T06:54:05.399Z,22.30
2018-05-08T06:55:05.026Z,22.30
2018-05-08T06:56:05.819Z,22.30
2018-05-08T06:57:05.281Z,22.30
2018-05-08T06:58:05.006Z,22.30
2018-05-08T06:59:05.639Z,22.30
2018-05-08T07:00:04.717Z,22.40
2018-05-08T07:01:04.889Z,22.50
2018-05-08T07:02:05.277Z,22.50
2018-05-08T07:03:05.286Z,22.50
2018-05-08T07:04:05.516Z,22.50
2018-05-08T07:05:05.265Z,22.50
2018-05-08T07:06:05.483Z,22.50
2018-05-08T07:07:05.074Z,22.40
2018-05-08T07:08:05.122Z,22.40
2018-05-08T07:09:05.574Z,22.40
2018-05-08T07:10:04.765Z,22.50
2018-05-08T07:11:05.688Z,22.50
2018-05-08T07:12:05.170Z,22.50
2018-05-08T07:13:05.021Z,22.50
2018-05-08T07:14:05.006Z,22.50
2018-05-08T07:15:05.644Z,22.50
2018-05-08T07:16:05.651Z,22.50
2018-05-08T07:17:05.650Z,22.40
2018-05-08T07:18:04.725Z,22.40
2018-05-08T07:19:04.980Z,22.40
2018-05-08T07:20:05.349Z,22.30
2018-05-08T07:21:04.857Z,22.30
2018-05-08T07:22:05.245Z,22.30
2018-05-08T07:23:05.557Z,22.20
2018-05-08T07:24:05.002Z,22.20
2018-05-08T07:25:05.094Z,22.10
2018-05-08T07:26:05.362Z,22.10
2018-05-08T07:27:04.874Z,22.10
2018-05-08T07:28:04.772Z,22.00
2018-05-08T07:29:09.877Z,22.00
2018-05-08T07:30:05.160Z,22.00
2018-05-08T07:31:05.326Z,21.90
2018-05-08T07:32:05.655Z,21.90
2018-05-08T07:33:05.197Z,21.90
2018-05-08T07:34:05.272Z,21.90
2018-05-08T07:35:05.649Z,21.90
2018-05-08T07:36:05.494Z,21.90
2018-05-08T07:37:05.233Z,21.90
2018-05-08T07:38:06.360Z,21.90
2018-05-08T07:39:05.448Z,21.90
2018-05-08T07:40:05.417Z,21.90
2018-05-08T07:41:05.028Z,21.90
2018-05-08T07:42:05.456Z,21.90
2018-05-08T07:43:05.758Z,21.90
2018-05-08T07:44:05.677Z,21.90
2018-05-08T07:45:04.856Z,21.90
2018-05-08T07:46:05.752Z,21.90
2018-05-08T07:47:04.914Z,21.90
2018-05-08T07:48:05.229Z,21.90
2018-05-08T07:49:04.739Z,21.90
2018-05-08T07:50:05.531Z,22.00
2018-05-08T07:51:05.376Z,22.00
2018-05-08T07:52:05.466Z,22.00
2018-05-08T07:53:05.119Z,22.00
2018-05-08T07:54:05.450Z,22.10
2018-05-08T07:55:05.808Z,22.10
2018-05-08T07:56:05.540Z,22.00
2018-05-08T07:57:05.046Z,22.00
2018-05-08T07:58:04.804Z,22.00
2018-05-08T07:59:06.415Z,22.10
2018-05-08T08:00:06.059Z,22.10
2018-05-08T08:01:05.066Z,22.10
2018-05-08T08:02:05.182Z,22.10
2018-05-08T08:03:05.580Z,22.10
2018-05-08T08:04:04.839Z,22.10
2018-05-08T08:05:05.605Z,22.10
2018-05-08T08:06:05.684Z,22.10
2018-05-08T08:07:05.211Z,22.10
2018-05-08T08:08:04.759Z,22.10
2018-05-08T08:09:04.897Z,22.20
2018-05-08T08:10:04.964Z,22.20
2018-05-08T08:11:05.280Z,22.20
2018-05-08T08:12:05.632Z,22.20
2018-05-08T08:13:05.188Z,22.20
2018-05-08T08:14:05.703Z,22.20
2018-05-08T08:15:05.474Z,22.20
2018-05-08T08:16:05.351Z,22.20
2018-05-08T08:17:05.095Z,22.20
2018-05-08T08:18:04.836Z,22.20
2018-05-08T08:19:05.280Z,22.20
2018-05-08T08:20:05.604Z,22.20
2018-05-08T08:21:05.797Z,22.20
2018-05-08T08:22:05.463Z,22.20
2018-05-08T08:23:05.603Z,22.20
2018-05-08T08:24:05.557Z,22.20
2018-05-08T08:25:04.815Z,22.20
2018-05-08T08:26:05.222Z,22.20
2018-05-08T08:27:04.745Z,22.20
2018-05-08T08:28:05.220Z,22.30
2018-05-08T08:29:05.613Z,22.40
2018-05-08T08:30:04.790Z,22.40
2018-05-08T08:31:04.903Z,22.50
2018-05-08T08:32:05.805Z,22.50
2018-05-08T08:33:04.830Z,22.50
2018-05-08T08:34:05.326Z,22.60
2018-05-08T08:35:04.759Z,22.60
2018-05-08T08:36:05.300Z,22.60
2018-05-08T08:37:05.405Z,22.60
2018-05-08T08:38:05.244Z,22.60
2018-05-08T08:39:05.549Z,22.60
2018-05-08T08:40:05.016Z,22.60
2018-05-08T08:41:05.673Z,22.50
2018-05-08T08:42:05.286Z,22.50
2018-05-08T08:43:05.203Z,22.50
2018-05-08T08:44:05.579Z,22.50
2018-05-08T08:45:04.842Z,22.50
2018-05-08T08:46:04.920Z,22.50
2018-05-08T08:47:05.890Z,22.40
2018-05-08T08:48:04.825Z,22.40
2018-05-08T08:49:05.673Z,22.40
2018-05-08T08:50:05.091Z,22.40
2018-05-08T08:51:05.015Z,22.40
2018-05-08T08:52:05.355Z,22.40
2018-05-08T08:53:04.836Z,22.40
2018-05-08T08:54:05.332Z,22.50
2018-05-08T08:55:05.628Z,22.50
2018-05-08T08:56:05.213Z,22.50
2018-05-08T08:57:04.874Z,22.50
2018-05-08T08:58:05.708Z,22.50
2018-05-08T08:59:06.945Z,22.50
2018-05-08T09:00:05.056Z,22.50
2018-05-08T09:01:04.712Z,22.60
2018-05-08T09:02:05.591Z,22.60
2018-05-08T09:03:04.946Z,22.60
2018-05-08T09:04:04.957Z,22.70
2018-05-08T09:05:05.192Z,22.70
2018-05-08T09:06:05.677Z,22.70
2018-05-08T09:07:05.043Z,22.70
2018-05-08T09:08:05.634Z,22.70
2018-05-08T09:09:05.780Z,22.80
2018-05-08T09:10:05.128Z,22.80
2018-05-08T09:11:05.186Z,22.80
2018-05-08T09:12:05.053Z,22.80
2018-05-08T09:13:05.212Z,22.80
2018-05-08T09:14:04.876Z,22.90
2018-05-08T09:15:05.565Z,22.90
2018-05-08T09:16:05.157Z,22.90
2018-05-08T09:17:05.214Z,22.90
2018-05-08T09:18:05.038Z,22.90
2018-05-08T09:19:04.717Z,22.90
2018-05-08T09:20:05.697Z,23.00
2018-05-08T09:21:05.523Z,23.00
2018-05-08T09:22:05.263Z,23.00
2018-05-08T09:23:05.563Z,23.00
2018-05-08T09:24:04.818Z,23.00
2018-05-08T09:25:04.931Z,23.00
2018-05-08T09:26:05.145Z,23.00
2018-05-08T09:27:05.414Z,23.00
2018-05-08T09:28:05.565Z,23.00
2018-05-08T09:29:05.958Z,23.00
2018-05-08T09:30:05.467Z,23.00
2018-05-08T09:31:05.398Z,23.00
2018-05-08T09:32:05.513Z,23.00
2018-05-08T09:33:08.515Z,22.90
2018-05-08T09:34:05.544Z,22.90
2018-05-08T09:35:05.056Z,22.90
2018-05-08T09:36:05.371Z,22.90
2018-05-08T09:37:04.848Z,22.90
2018-05-08T09:38:05.457Z,22.90
2018-05-08T09:39:04.777Z,23.00
2018-05-08T09:40:04.926Z,23.00
2018-05-08T09:41:04.976Z,23.00
2018-05-08T09:42:05.196Z,23.00
2018-05-08T09:43:05.920Z,23.00
2018-05-08T09:44:05.104Z,23.00
2018-05-08T09:45:05.398Z,23.00
2018-05-08T09:46:05.518Z,23.00
2018-05-08T09:47:05.673Z,23.10
2018-05-08T09:48:05.632Z,23.10
2018-05-08T09:49:05.595Z,23.10
2018-05-08T09:50:05.591Z,23.20
2018-05-08T09:51:05.539Z,23.20
2018-05-08T09:52:05.502Z,23.20
2018-05-08T09:53:04.967Z,23.30
2018-05-08T09:54:05.039Z,23.30
2018-05-08T09:55:05.058Z,23.30
2018-05-08T09:56:05.225Z,23.40
2018-05-08T09:57:04.691Z,23.40
2018-05-08T09:58:05.293Z,23.40
2018-05-08T09:59:04.847Z,23.40
2018-05-08T10:00:05.368Z,23.40
2018-05-08T10:01:05.602Z,23.40
2018-05-08T10:02:04.775Z,23.40
2018-05-08T10:03:05.213Z,23.40
2018-05-08T10:04:05.135Z,23.40
2018-05-08T10:05:04.940Z,23.40
2018-05-08T10:06:05.183Z,23.30
2018-05-08T10:07:05.305Z,23.30
2018-05-08T10:08:05.314Z,23.40
2018-05-08T10:09:04.993Z,23.40
2018-05-08T10:10:04.941Z,23.40
2018-05-08T10:11:05.462Z,23.40
2018-05-08T10:12:05.502Z,23.40
2018-05-08T10:13:04.644Z,23.40
2018-05-08T10:14:05.571Z,23.40
2018-05-08T10:15:04.775Z,23.50
2018-05-08T10:16:04.759Z,23.50
2018-05-08T10:17:05.423Z,23.50
2018-05-08T10:18:04.857Z,23.50
2018-05-08T10:19:04.822Z,23.50
2018-05-08T10:20:05.514Z,23.50
2018-05-08T10:21:04.960Z,23.60
2018-05-08T10:22:04.756Z,23.60
2018-05-08T10:23:05.411Z,23.60
2018-05-08T10:24:05.008Z,23.60
2018-05-08T10:25:05.261Z,23.60
2018-05-08T10:26:06.551Z,23.60
2018-05-08T10:27:05.719Z,23.60
2018-05-08T10:28:04.863Z,23.70
2018-05-08T10:29:05.207Z,23.70
2018-05-08T10:30:05.140Z,23.70
2018-05-08T10:31:04.905Z,23.70
2018-05-08T10:32:05.515Z,23.70
2018-05-08T10:33:05.228Z,23.70
2018-05-08T10:34:05.576Z,23.60
2018-05-08T10:35:05.034Z,23.70
2018-05-08T10:36:05.057Z,23.70
2018-05-08T10:37:05.540Z,23.70
2018-05-08T10:38:05.255Z,23.70
2018-05-08T10:39:05.000Z,23.70
2018-05-08T10:40:05.413Z,23.70
2018-05-08T10:41:05.450Z,23.70
2018-05-08T10:42:05.119Z,23.70
2018-05-08T10:43:05.174Z,23.70
2018-05-08T10:44:04.881Z,23.70
2018-05-08T10:45:05.688Z,23.70
2018-05-08T10:46:05.625Z,23.70
2018-05-08T10:47:05.389Z,23.70
2018-05-08T10:48:04.863Z,23.70
2018-05-08T10:49:05.005Z,23.70
2018-05-08T10:50:04.701Z,23.60
2018-05-08T10:51:04.806Z,23.70
2018-05-08T10:52:04.884Z,23.70
2018-05-08T10:53:04.924Z,23.70
2018-05-08T10:54:04.788Z,23.80
2018-05-08T10:55:04.852Z,23.70
2018-05-08T10:56:05.621Z,23.70
2018-05-08T10:57:05.725Z,23.70
2018-05-08T10:58:05.423Z,23.70
2018-05-08T10:59:05.630Z,23.70
2018-05-08T11:00:04.809Z,23.80
2018-05-08T11:01:10.110Z,23.80
2018-05-08T11:02:06.118Z,23.80
2018-05-08T11:03:05.580Z,23.90
2018-05-08T11:04:05.622Z,23.90
2018-05-08T11:05:05.357Z,23.90
2018-05-08T11:06:05.714Z,23.90
2018-05-08T11:07:05.574Z,23.90
2018-05-08T11:08:05.399Z,24.00
2018-05-08T11:09:05.053Z,24.00
2018-05-08T11:10:04.979Z,24.00
2018-05-08T11:11:05.253Z,24.00
2018-05-08T11:12:05.278Z,24.10
2018-05-08T11:13:04.955Z,24.10
2018-05-08T11:14:04.984Z,24.20
2018-05-08T11:15:05.693Z,24.20
2018-05-08T11:16:05.446Z,24.20
2018-05-08T11:17:05.228Z,24.20
2018-05-08T11:18:05.290Z,24.20
2018-05-08T11:19:05.680Z,24.20
2018-05-08T11:20:05.587Z,24.20
2018-05-08T11:21:05.307Z,24.20
2018-05-08T11:22:05.073Z,24.20
2018-05-08T11:23:05.447Z,24.10
2018-05-08T11:24:05.134Z,24.10
2018-05-08T11:25:05.462Z,24.10
2018-05-08T11:26:05.221Z,24.10
2018-05-08T11:27:05.030Z,24.10
2018-05-08T11:28:04.777Z,24.10
2018-05-08T11:29:05.723Z,24.10
2018-05-08T11:30:05.525Z,24.10
2018-05-08T11:31:05.504Z,24.10
2018-05-08T11:32:04.842Z,24.10
2018-05-08T11:33:04.931Z,24.20
2018-05-08T11:34:05.469Z,24.20
2018-05-08T11:35:05.655Z,24.20
2018-05-08T11:36:04.985Z,24.30
2018-05-08T11:37:05.489Z,24.30
2018-05-08T11:38:05.683Z,24.30
2018-05-08T11:39:05.631Z,24.30
2018-05-08T11:40:05.009Z,24.40
2018-05-08T11:41:04.997Z,24.40
2018-05-08T11:42:05.659Z,24.40
2018-05-08T11:43:04.922Z,24.40
2018-05-08T11:44:05.295Z,24.40
2018-05-08T11:45:05.531Z,24.40
2018-05-08T11:46:05.728Z,24.50
2018-05-08T11:47:05.490Z,24.50
2018-05-08T11:48:05.169Z,24.50
2018-05-08T11:49:05.566Z,24.60
2018-05-08T11:50:05.127Z,24.60
2018-05-08T11:51:04.999Z,24.60
2018-05-08T11:52:04.697Z,24.60
2018-05-08T11:53:05.493Z,24.60
2018-05-08T11:54:05.751Z,24.60
2018-05-08T11:55:05.640Z,24.60
2018-05-08T11:56:04.979Z,24.60
2018-05-08T11:57:05.127Z,24.60
2018-05-08T11:58:04.856Z,24.60
2018-05-08T11:59:04.720Z,24.60
2018-05-08T12:00:04.803Z,24.60
2018-05-08T12:01:05.036Z,24.60
2018-05-08T12:02:04.775Z,24.60
2018-05-08T12:03:05.107Z,24.60
2018-05-08T12:04:05.165Z,24.60
2018-05-08T12:05:04.953Z,24.60
2018-05-08T12:06:04.910Z,24.60
2018-05-08T12:07:05.718Z,24.60
2018-05-08T12:08:05.417Z,24.60
2018-05-08T12:09:05.505Z,24.60
2018-05-08T12:10:05.056Z,24.60
2018-05-08T12:11:04.753Z,24.60
2018-05-08T12:12:05.078Z,24.60
2018-05-08T12:13:05.451Z,24.60
2018-05-08T12:14:04.913Z,24.60
2018-05-08T12:15:06.443Z,24.70
2018-05-08T12:16:05.556Z,24.70
2018-05-08T12:17:05.733Z,24.70
2018-05-08T12:18:04.967Z,24.80
2018-05-08T12:19:05.098Z,24.80
2018-05-08T12:20:05.673Z,24.80
2018-05-08T12:21:04.875Z,24.80
2018-05-08T12:22:05.375Z,24.80
2018-05-08T12:23:05.479Z,24.90
2018-05-08T12:24:05.541Z,24.90
2018-05-08T12:25:10.289Z,24.90
2018-05-08T12:26:05.504Z,24.90
2018-05-08T12:27:04.846Z,24.90
2018-05-08T12:28:05.097Z,24.90
2018-05-08T12:29:05.321Z,24.90
2018-05-08T12:30:04.925Z,24.90
2018-05-08T12:31:10.749Z,24.80
2018-05-08T12:32:05.631Z,24.80
2018-05-08T12:33:05.414Z,24.80
2018-05-08T12:34:05.439Z,24.80
2018-05-08T12:35:05.185Z,24.90
2018-05-08T12:36:05.367Z,24.90
2018-05-08T12:37:04.799Z,24.90
2018-05-08T12:38:04.945Z,24.90
2018-05-08T12:39:05.143Z,24.90
2018-05-08T12:40:04.930Z,24.90
2018-05-08T12:41:04.691Z,24.90
2018-05-08T12:42:04.821Z,24.90
2018-05-08T12:43:05.140Z,24.90
2018-05-08T12:44:04.892Z,24.90
2018-05-08T12:45:04.886Z,24.90
2018-05-08T12:46:04.826Z,24.90
2018-05-08T12:47:04.796Z,24.90
2018-05-08T12:48:05.804Z,24.90
2018-05-08T12:49:05.080Z,24.90
2018-05-08T12:50:05.477Z,24.90
2018-05-08T12:51:05.415Z,24.90
2018-05-08T12:52:04.876Z,24.90
2018-05-08T12:53:04.649Z,24.90
2018-05-08T12:54:05.624Z,24.90